sensor_id;sensor_type;location;lat;lon;timestamp;pressure;altitude;pressure_sealevel;temperature;humidity
23261;BME280;11799;47.740;-3.390;2022-07-29T00:01:21;101453.53;;;18.24;87.38
23261;BME280;11799;47.740;-3.390;2022-07-29T00:03:47;101434.25;;;18.14;86.22
23261;BME280;11799;47.740;-3.390;2022-07-29T00:06:14;101457.66;;;18.31;84.95
23261;BME280;11799;47.740;-3.390;2022-07-29T00:08:39;101456.56;;;18.27;85.02
23261;BME280;11799;47.740;-3.390;2022-07-29T00:11:05;101461.50;;;18.30;84.78
23261;BME280;11799;47.740;-3.390;2022-07-29T00:13:31;101457.94;;;18.35;85.27
23261;BME280;11799;47.740;-3.390;2022-07-29T00:15:56;101466.47;;;18.33;85.79
23261;BME280;11799;47.740;-3.390;2022-07-29T00:18:22;101462.06;;;18.32;84.79
23261;BME280;11799;47.740;-3.390;2022-07-29T00:20:47;101460.41;;;18.26;85.58
23261;BME280;11799;47.740;-3.390;2022-07-29T00:23:13;101460.97;;;18.33;85.69
23261;BME280;11799;47.740;-3.390;2022-07-29T00:25:39;101460.13;;;18.33;85.73
23261;BME280;11799;47.740;-3.390;2022-07-29T00:28:04;101457.38;;;18.28;85.96
23261;BME280;11799;47.740;-3.390;2022-07-29T00:30:30;101456.56;;;18.27;84.18
23261;BME280;11799;47.740;-3.390;2022-07-29T00:32:55;101452.16;;;18.31;83.59
23261;BME280;11799;47.740;-3.390;2022-07-29T00:35:21;101448.03;;;18.29;84.44
23261;BME280;11799;47.740;-3.390;2022-07-29T00:38:05;101450.78;;;18.24;85.92
23261;BME280;11799;47.740;-3.390;2022-07-29T00:40:30;101445.53;;;18.22;87.61
23261;BME280;11799;47.740;-3.390;2022-07-29T00:42:56;101436.47;;;18.22;88.77
23261;BME280;11799;47.740;-3.390;2022-07-29T00:45:22;101433.44;;;18.18;88.96
23261;BME280;11799;47.740;-3.390;2022-07-29T00:47:47;101433.69;;;18.06;90.90
23261;BME280;11799;47.740;-3.390;2022-07-29T00:50:13;101429.25;;;18.00;92.22
23261;BME280;11799;47.740;-3.390;2022-07-29T00:52:40;101427.31;;;17.86;94.17
23261;BME280;11799;47.740;-3.390;2022-07-29T00:55:10;101424.56;;;17.86;94.96
23261;BME280;11799;47.740;-3.390;2022-07-29T00:57:36;101425.63;;;17.74;96.59
23261;BME280;11799;47.740;-3.390;2022-07-29T01:00:06;101420.16;;;17.85;96.68
23261;BME280;11799;47.740;-3.390;2022-07-29T01:02:32;101419.31;;;17.79;96.74
23261;BME280;11799;47.740;-3.390;2022-07-29T01:04:58;101414.91;;;17.78;97.71
23261;BME280;11799;47.740;-3.390;2022-07-29T01:07:25;101416.00;;;17.72;98.72
23261;BME280;11799;47.740;-3.390;2022-07-29T01:09:52;101417.38;;;17.69;99.58
23261;BME280;11799;47.740;-3.390;2022-07-29T01:12:21;101406.69;;;17.78;99.15
23261;BME280;11799;47.740;-3.390;2022-07-29T01:14:49;101413.28;;;17.82;98.82
23261;BME280;11799;47.740;-3.390;2022-07-29T01:17:58;101404.75;;;17.73;97.45
23261;BME280;11799;47.740;-3.390;2022-07-29T01:30:51;101397.88;;;17.76;94.90
23261;BME280;11799;47.740;-3.390;2022-07-29T01:33:19;101395.41;;;17.80;95.37
23261;BME280;11799;47.740;-3.390;2022-07-29T01:36:10;101399.53;;;17.82;95.17
23261;BME280;11799;47.740;-3.390;2022-07-29T01:38:39;101402.84;;;17.79;94.92
23261;BME280;11799;47.740;-3.390;2022-07-29T01:41:09;101403.09;;;17.72;95.78
23261;BME280;11799;47.740;-3.390;2022-07-29T01:43:41;101409.16;;;17.80;95.41
23261;BME280;11799;47.740;-3.390;2022-07-29T01:46:13;101404.75;;;17.79;94.60
23261;BME280;11799;47.740;-3.390;2022-07-29T01:48:47;101408.59;;;17.77;94.44
23261;BME280;11799;47.740;-3.390;2022-07-29T01:51:33;101408.31;;;17.74;95.23
23261;BME280;11799;47.740;-3.390;2022-07-29T01:54:12;101412.72;;;17.75;96.03
23261;BME280;11799;47.740;-3.390;2022-07-29T01:56:39;101413.44;;;17.65;96.38
23261;BME280;11799;47.740;-3.390;2022-07-29T01:59:07;101415.63;;;17.58;98.01
23261;BME280;11799;47.740;-3.390;2022-07-29T02:01:34;101420.81;;;17.44;97.97
23261;BME280;11799;47.740;-3.390;2022-07-29T02:04:06;101411.44;;;17.35;97.81
23261;BME280;11799;47.740;-3.390;2022-07-29T02:06:34;101427.59;;;17.32;97.30
23261;BME280;11799;47.740;-3.390;2022-07-29T02:09:03;101427.09;;;17.35;97.39
23261;BME280;11799;47.740;-3.390;2022-07-29T02:11:31;101428.94;;;17.29;97.47
23261;BME280;11799;47.740;-3.390;2022-07-29T02:14:00;101425.94;;;17.31;97.63
23261;BME280;11799;47.740;-3.390;2022-07-29T02:16:29;101431.41;;;17.26;97.21
23261;BME280;11799;47.740;-3.390;2022-07-29T02:18:57;101430.00;;;17.23;97.29
23261;BME280;11799;47.740;-3.390;2022-07-29T02:21:25;101437.09;;;17.14;97.46
23261;BME280;11799;47.740;-3.390;2022-07-29T02:23:54;101439.31;;;17.17;97.88
23261;BME280;11799;47.740;-3.390;2022-07-29T02:26:23;101437.94;;;17.14;98.66
23261;BME280;11799;47.740;-3.390;2022-07-29T02:28:52;101431.56;;;17.04;98.87
23261;BME280;11799;47.740;-3.390;2022-07-29T02:31:21;101432.13;;;17.06;98.75
23261;BME280;11799;47.740;-3.390;2022-07-29T02:33:48;101428.53;;;17.00;98.99
23261;BME280;11799;47.740;-3.390;2022-07-29T02:36:15;101431.81;;;17.02;99.76
23261;BME280;11799;47.740;-3.390;2022-07-29T02:38:42;101424.09;;;16.99;99.78
23261;BME280;11799;47.740;-3.390;2022-07-29T02:41:20;101421.69;;;17.03;99.57
23261;BME280;11799;47.740;-3.390;2022-07-29T02:43:50;101424.06;;;16.94;98.46
23261;BME280;11799;47.740;-3.390;2022-07-29T02:46:27;101429.09;;;17.02;98.34
23261;BME280;11799;47.740;-3.390;2022-07-29T02:48:59;101434.00;;;17.00;97.88
23261;BME280;11799;47.740;-3.390;2022-07-29T02:52:01;101434.19;;;16.89;97.42
23261;BME280;11799;47.740;-3.390;2022-07-29T02:54:30;101436.38;;;16.87;97.92
23261;BME280;11799;47.740;-3.390;2022-07-29T02:57:00;101428.69;;;16.89;98.34
23261;BME280;11799;47.740;-3.390;2022-07-29T02:59:31;101439.66;;;16.89;98.45
23261;BME280;11799;47.740;-3.390;2022-07-29T03:01:58;101428.38;;;16.80;98.00
23261;BME280;11799;47.740;-3.390;2022-07-29T03:04:26;101431.97;;;16.86;97.77
23261;BME280;11799;47.740;-3.390;2022-07-29T03:06:53;101426.78;;;16.89;97.51
23261;BME280;11799;47.740;-3.390;2022-07-29T03:09:20;101425.38;;;16.87;97.71
23261;BME280;11799;47.740;-3.390;2022-07-29T03:11:47;101418.25;;;16.86;98.04
23261;BME280;11799;47.740;-3.390;2022-07-29T03:14:13;101416.31;;;16.86;98.01
23261;BME280;11799;47.740;-3.390;2022-07-29T03:16:40;101422.69;;;16.92;97.39
23261;BME280;11799;47.740;-3.390;2022-07-29T03:19:05;101430.94;;;16.97;98.10
23261;BME280;11799;47.740;-3.390;2022-07-29T03:21:31;101425.44;;;16.97;98.76
23261;BME280;11799;47.740;-3.390;2022-07-29T03:23:57;101427.63;;;16.95;98.41
23261;BME280;11799;47.740;-3.390;2022-07-29T03:26:22;101422.94;;;16.90;98.84
23261;BME280;11799;47.740;-3.390;2022-07-29T03:28:48;101419.91;;;16.87;99.21
23261;BME280;11799;47.740;-3.390;2022-07-29T03:31:14;101420.97;;;16.80;99.50
23261;BME280;11799;47.740;-3.390;2022-07-29T03:33:39;101422.06;;;16.79;99.79
23261;BME280;11799;47.740;-3.390;2022-07-29T03:36:05;101417.63;;;16.73;99.88
23261;BME280;11799;47.740;-3.390;2022-07-29T03:38:33;101416.25;;;16.76;99.38
23261;BME280;11799;47.740;-3.390;2022-07-29T03:41:03;101413.53;;;16.76;98.83
23261;BME280;11799;47.740;-3.390;2022-07-29T03:43:35;101415.09;;;16.67;98.49
23261;BME280;11799;47.740;-3.390;2022-07-29T03:46:04;101409.25;;;16.63;98.61
23261;BME280;11799;47.740;-3.390;2022-07-29T03:48:33;101403.31;;;16.66;98.88
23261;BME280;11799;47.740;-3.390;2022-07-29T03:51:01;101402.47;;;16.66;99.13
23261;BME280;11799;47.740;-3.390;2022-07-29T03:53:26;101406.63;;;16.68;99.29
23261;BME280;11799;47.740;-3.390;2022-07-29T03:55:54;101393.88;;;16.62;99.49
23261;BME280;11799;47.740;-3.390;2022-07-29T03:58:26;101400.56;;;16.66;99.37
23261;BME280;11799;47.740;-3.390;2022-07-29T04:00:54;101394.94;;;16.56;99.81
23261;BME280;11799;47.740;-3.390;2022-07-29T04:03:20;101389.47;;;16.56;99.52
23261;BME280;11799;47.740;-3.390;2022-07-29T04:05:58;101396.84;;;16.56;99.90
23261;BME280;11799;47.740;-3.390;2022-07-29T04:08:23;101391.59;;;16.49;100.00
23261;BME280;11799;47.740;-3.390;2022-07-29T04:10:49;101387.84;;;16.60;100.00
23261;BME280;11799;47.740;-3.390;2022-07-29T04:13:15;101393.59;;;16.59;99.80
23261;BME280;11799;47.740;-3.390;2022-07-29T04:15:40;101388.75;;;16.66;99.68
23261;BME280;11799;47.740;-3.390;2022-07-29T04:18:06;101390.41;;;16.67;99.72
23261;BME280;11799;47.740;-3.390;2022-07-29T04:20:31;101390.16;;;16.68;99.30
23261;BME280;11799;47.740;-3.390;2022-07-29T04:22:57;101403.88;;;16.68;98.69
23261;BME280;11799;47.740;-3.390;2022-07-29T04:25:22;101399.22;;;16.69;98.61
23261;BME280;11799;47.740;-3.390;2022-07-29T04:27:48;101406.63;;;16.68;98.83
23261;BME280;11799;47.740;-3.390;2022-07-29T04:30:26;101405.41;;;16.64;99.29
23261;BME280;11799;47.740;-3.390;2022-07-29T04:32:51;101405.38;;;16.59;99.64
23261;BME280;11799;47.740;-3.390;2022-07-29T04:35:18;101403.22;;;16.61;99.61
23261;BME280;11799;47.740;-3.390;2022-07-29T04:37:44;101403.50;;;16.65;99.29
23261;BME280;11799;47.740;-3.390;2022-07-29T04:40:10;101410.03;;;16.59;99.74
23261;BME280;11799;47.740;-3.390;2022-07-29T04:42:37;101410.03;;;16.59;99.57
23261;BME280;11799;47.740;-3.390;2022-07-29T04:45:03;101402.69;;;16.64;99.51
23261;BME280;11799;47.740;-3.390;2022-07-29T04:47:29;101404.28;;;16.60;99.45
23261;BME280;11799;47.740;-3.390;2022-07-29T04:49:55;101396.38;;;16.64;99.29
23261;BME280;11799;47.740;-3.390;2022-07-29T04:52:22;101402.91;;;16.58;98.50
23261;BME280;11799;47.740;-3.390;2022-07-29T04:54:48;101400.72;;;16.60;97.29
23261;BME280;11799;47.740;-3.390;2022-07-29T04:57:14;101398.38;;;16.68;96.83
23261;BME280;11799;47.740;-3.390;2022-07-29T04:59:39;101400.56;;;16.66;95.97
23261;BME280;11799;47.740;-3.390;2022-07-29T05:02:05;101408.56;;;16.73;95.92
23261;BME280;11799;47.740;-3.390;2022-07-29T05:04:31;101397.03;;;16.71;95.93
23261;BME280;11799;47.740;-3.390;2022-07-29T05:06:57;101397.06;;;16.76;95.47
23261;BME280;11799;47.740;-3.390;2022-07-29T05:09:22;101401.72;;;16.75;95.46
23261;BME280;11799;47.740;-3.390;2022-07-29T05:11:48;101405.28;;;16.76;95.31
23261;BME280;11799;47.740;-3.390;2022-07-29T05:14:13;101406.91;;;16.72;95.28
23261;BME280;11799;47.740;-3.390;2022-07-29T05:16:39;101403.06;;;16.73;94.93
23261;BME280;11799;47.740;-3.390;2022-07-29T05:19:05;101402.00;;;16.79;95.12
23261;BME280;11799;47.740;-3.390;2022-07-29T05:21:31;101405.03;;;16.77;94.95
23261;BME280;11799;47.740;-3.390;2022-07-29T05:23:57;101405.06;;;16.82;95.16
23261;BME280;11799;47.740;-3.390;2022-07-29T05:26:23;101413.59;;;16.86;94.70
23261;BME280;11799;47.740;-3.390;2022-07-29T05:28:48;101403.44;;;16.87;94.85
23261;BME280;11799;47.740;-3.390;2022-07-29T05:31:14;101412.00;;;16.95;94.82
23261;BME280;11799;47.740;-3.390;2022-07-29T05:33:40;101420.78;;;16.97;94.60
23261;BME280;11799;47.740;-3.390;2022-07-29T05:36:06;101419.50;;;17.05;94.40
23261;BME280;11799;47.740;-3.390;2022-07-29T05:38:33;101418.69;;;17.09;94.64
23261;BME280;11799;47.740;-3.390;2022-07-29T05:40:58;101425.28;;;17.13;94.22
23261;BME280;11799;47.740;-3.390;2022-07-29T05:43:26;101428.31;;;17.12;94.56
23261;BME280;11799;47.740;-3.390;2022-07-29T05:45:51;101425.63;;;17.22;94.61
23261;BME280;11799;47.740;-3.390;2022-07-29T05:48:17;101430.31;;;17.27;94.17
23261;BME280;11799;47.740;-3.390;2022-07-29T05:50:42;101430.31;;;17.27;93.83
23261;BME280;11799;47.740;-3.390;2022-07-29T05:53:13;101436.91;;;17.31;93.76
23261;BME280;11799;47.740;-3.390;2022-07-29T05:55:39;101433.69;;;17.39;93.91
23261;BME280;11799;47.740;-3.390;2022-07-29T05:58:04;101440.31;;;17.43;93.72
23261;BME280;11799;47.740;-3.390;2022-07-29T06:00:30;101449.09;;;17.45;93.91
23261;BME280;11799;47.740;-3.390;2022-07-29T06:02:55;101441.94;;;17.39;93.67
23261;BME280;11799;47.740;-3.390;2022-07-29T06:05:22;101451.28;;;17.43;94.18
23261;BME280;11799;47.740;-3.390;2022-07-29T06:07:48;101452.66;;;17.40;94.19
23261;BME280;11799;47.740;-3.390;2022-07-29T06:10:13;101452.13;;;17.43;94.68
23261;BME280;11799;47.740;-3.390;2022-07-29T06:12:39;101456.50;;;17.44;94.05
23261;BME280;11799;47.740;-3.390;2022-07-29T06:15:05;101456.25;;;17.46;94.29
23261;BME280;11799;47.740;-3.390;2022-07-29T06:17:31;101457.63;;;17.49;94.34
23261;BME280;11799;47.740;-3.390;2022-07-29T06:19:57;101458.41;;;17.39;94.54
23261;BME280;11799;47.740;-3.390;2022-07-29T06:22:22;101459.28;;;17.50;93.95
23261;BME280;11799;47.740;-3.390;2022-07-29T06:24:48;101474.97;;;17.59;93.92
23261;BME280;11799;47.740;-3.390;2022-07-29T06:27:13;101466.50;;;17.66;93.68
23261;BME280;11799;47.740;-3.390;2022-07-29T06:29:39;101471.75;;;17.67;93.21
23261;BME280;11799;47.740;-3.390;2022-07-29T06:32:05;101484.16;;;17.70;93.04
23261;BME280;11799;47.740;-3.390;2022-07-29T06:34:30;101485.22;;;17.69;92.61
23261;BME280;11799;47.740;-3.390;2022-07-29T06:36:56;101486.09;;;17.80;92.71
23261;BME280;11799;47.740;-3.390;2022-07-29T06:39:22;101490.78;;;17.84;92.30
23261;BME280;11799;47.740;-3.390;2022-07-29T06:41:48;101492.16;;;17.82;92.50
23261;BME280;11799;47.740;-3.390;2022-07-29T06:44:15;101493.78;;;17.77;92.41
23261;BME280;11799;47.740;-3.390;2022-07-29T06:46:41;101497.13;;;17.85;91.95
23261;BME280;11799;47.740;-3.390;2022-07-29T06:49:06;101497.69;;;17.87;91.95
23261;BME280;11799;47.740;-3.390;2022-07-29T06:51:32;101499.91;;;17.95;90.57
23261;BME280;11799;47.740;-3.390;2022-07-29T06:53:58;101501.56;;;18.01;90.59
23261;BME280;11799;47.740;-3.390;2022-07-29T06:56:24;101504.31;;;18.01;89.76
23261;BME280;11799;47.740;-3.390;2022-07-29T06:58:50;101504.63;;;18.04;89.37
23261;BME280;11799;47.740;-3.390;2022-07-29T07:01:15;101509.88;;;18.11;89.05
23261;BME280;11799;47.740;-3.390;2022-07-29T07:03:41;101512.66;;;18.26;88.61
23261;BME280;11799;47.740;-3.390;2022-07-29T07:06:07;101514.84;;;18.24;87.62
23261;BME280;11799;47.740;-3.390;2022-07-29T07:08:33;101514.84;;;18.24;87.79
23261;BME280;11799;47.740;-3.390;2022-07-29T07:10:59;101514.31;;;18.27;87.50
23261;BME280;11799;47.740;-3.390;2022-07-29T07:13:24;101527.81;;;18.34;87.95
23261;BME280;11799;47.740;-3.390;2022-07-29T07:15:50;101531.09;;;18.36;87.04
23261;BME280;11799;47.740;-3.390;2022-07-29T07:18:17;101537.75;;;18.40;87.27
23261;BME280;11799;47.740;-3.390;2022-07-29T07:20:43;101534.44;;;18.43;87.01
23261;BME280;11799;47.740;-3.390;2022-07-29T07:23:09;101532.28;;;18.60;87.26
23261;BME280;11799;47.740;-3.390;2022-07-29T07:25:35;101533.38;;;18.54;86.42
23261;BME280;11799;47.740;-3.390;2022-07-29T07:28:01;101530.34;;;18.61;86.74
23261;BME280;11799;47.740;-3.390;2022-07-29T07:30:27;101529.28;;;18.62;86.02
23261;BME280;11799;47.740;-3.390;2022-07-29T07:32:53;101536.97;;;18.65;85.28
23261;BME280;11799;47.740;-3.390;2022-07-29T07:35:19;101537.84;;;18.76;85.28
23261;BME280;11799;47.740;-3.390;2022-07-29T07:37:45;101539.78;;;18.75;84.26
23261;BME280;11799;47.740;-3.390;2022-07-29T07:40:11;101534.25;;;18.85;84.58
23261;BME280;11799;47.740;-3.390;2022-07-29T07:42:37;101539.22;;;18.88;84.39
23261;BME280;11799;47.740;-3.390;2022-07-29T07:45:03;101541.16;;;18.98;83.96
23261;BME280;11799;47.740;-3.390;2022-07-29T07:47:30;101539.25;;;19.09;83.24
23261;BME280;11799;47.740;-3.390;2022-07-29T07:49:55;101544.75;;;19.09;82.48
23261;BME280;11799;47.740;-3.390;2022-07-29T07:52:21;101543.63;;;19.15;82.59
23261;BME280;11799;47.740;-3.390;2022-07-29T07:54:48;101536.47;;;19.24;83.05
23261;BME280;11799;47.740;-3.390;2022-07-29T07:57:14;101540.56;;;19.42;82.13
23261;BME280;11799;47.740;-3.390;2022-07-29T07:59:40;101541.13;;;19.49;80.77
23261;BME280;11799;47.740;-3.390;2022-07-29T08:02:06;101546.59;;;19.74;80.40
23261;BME280;11799;47.740;-3.390;2022-07-29T08:04:32;101545.47;;;19.85;79.76
23261;BME280;11799;47.740;-3.390;2022-07-29T08:06:58;101548.47;;;19.94;79.45
23261;BME280;11799;47.740;-3.390;2022-07-29T08:09:26;101553.97;;;19.94;79.63
23261;BME280;11799;47.740;-3.390;2022-07-29T08:11:52;101552.78;;;20.20;77.25
23261;BME280;11799;47.740;-3.390;2022-07-29T08:14:18;101548.31;;;20.30;77.79
23261;BME280;11799;47.740;-3.390;2022-07-29T08:16:43;101553.31;;;20.22;76.54
23261;BME280;11799;47.740;-3.390;2022-07-29T08:19:10;101547.72;;;20.33;76.48
23261;BME280;11799;47.740;-3.390;2022-07-29T08:21:35;101553.75;;;20.50;76.77
23261;BME280;11799;47.740;-3.390;2022-07-29T08:24:01;101548.19;;;20.55;75.05
23261;BME280;11799;47.740;-3.390;2022-07-29T08:26:45;101542.66;;;20.60;74.38
23261;BME280;11799;47.740;-3.390;2022-07-29T08:29:11;101553.69;;;21.33;72.42
23261;BME280;11799;47.740;-3.390;2022-07-29T08:31:37;101548.53;;;21.51;69.71
23261;BME280;11799;47.740;-3.390;2022-07-29T08:34:03;101556.41;;;21.67;68.64
23261;BME280;11799;47.740;-3.390;2022-07-29T08:36:30;101552.97;;;21.75;67.30
23261;BME280;11799;47.740;-3.390;2022-07-29T08:38:55;101555.06;;;21.89;68.04
23261;BME280;11799;47.740;-3.390;2022-07-29T08:41:21;101551.69;;;22.16;65.06
23261;BME280;11799;47.740;-3.390;2022-07-29T08:43:48;101551.44;;;22.55;63.19
23261;BME280;11799;47.740;-3.390;2022-07-29T08:46:14;101549.88;;;22.67;62.55
23261;BME280;11799;47.740;-3.390;2022-07-29T08:48:41;101552.75;;;23.46;61.20
23261;BME280;11799;47.740;-3.390;2022-07-29T08:51:07;101561.03;;;23.65;59.40
23261;BME280;11799;47.740;-3.390;2022-07-29T08:53:33;101568.34;;;23.10;63.51
23261;BME280;11799;47.740;-3.390;2022-07-29T08:55:59;101567.44;;;23.14;64.00
23261;BME280;11799;47.740;-3.390;2022-07-29T08:58:31;101565.25;;;23.30;62.76
23261;BME280;11799;47.740;-3.390;2022-07-29T09:01:01;101566.47;;;23.70;62.55
23261;BME280;11799;47.740;-3.390;2022-07-29T09:03:31;101556.28;;;24.20;61.08
23261;BME280;11799;47.740;-3.390;2022-07-29T09:06:01;101557.66;;;23.95;58.85
23261;BME280;11799;47.740;-3.390;2022-07-29T09:08:27;101551.53;;;24.84;58.97
23261;BME280;11799;47.740;-3.390;2022-07-29T09:10:54;101554.34;;;25.07;55.32
23261;BME280;11799;47.740;-3.390;2022-07-29T09:13:21;101556.06;;;25.16;54.96
23261;BME280;11799;47.740;-3.390;2022-07-29T09:15:47;101555.97;;;25.30;55.91
23261;BME280;11799;47.740;-3.390;2022-07-29T09:18:33;101554.28;;;25.52;53.14
23261;BME280;11799;47.740;-3.390;2022-07-29T09:21:00;101556.56;;;25.18;52.63
23261;BME280;11799;47.740;-3.390;2022-07-29T09:24:11;101552.41;;;24.71;51.79
23261;BME280;11799;47.740;-3.390;2022-07-29T09:26:42;101552.78;;;25.14;53.59
23261;BME280;11799;47.740;-3.390;2022-07-29T09:29:13;101554.44;;;25.46;53.73
23261;BME280;11799;47.740;-3.390;2022-07-29T09:31:41;101555.28;;;25.78;52.61
23261;BME280;11799;47.740;-3.390;2022-07-29T09:34:08;101553.63;;;25.77;50.39
23261;BME280;11799;47.740;-3.390;2022-07-29T09:36:46;101560.13;;;25.41;53.02
23261;BME280;11799;47.740;-3.390;2022-07-29T09:39:12;101557.81;;;25.35;50.86
23261;BME280;11799;47.740;-3.390;2022-07-29T09:41:49;101557.25;;;25.55;52.82
23261;BME280;11799;47.740;-3.390;2022-07-29T09:44:15;101556.63;;;25.98;50.40
23261;BME280;11799;47.740;-3.390;2022-07-29T09:46:59;101561.19;;;25.54;50.03
23261;BME280;11799;47.740;-3.390;2022-07-29T09:49:31;101560.28;;;26.07;48.96
23261;BME280;11799;47.740;-3.390;2022-07-29T09:52:03;101554.34;;;26.00;48.83
23261;BME280;11799;47.740;-3.390;2022-07-29T09:54:29;101557.34;;;26.03;48.63
23261;BME280;11799;47.740;-3.390;2022-07-29T09:56:59;101554.34;;;25.60;48.84
23261;BME280;11799;47.740;-3.390;2022-07-29T09:59:25;101548.84;;;25.69;48.65
23261;BME280;11799;47.740;-3.390;2022-07-29T10:01:52;101553.47;;;25.73;48.77
23261;BME280;11799;47.740;-3.390;2022-07-29T10:04:18;101566.78;;;25.63;48.94
23261;BME280;11799;47.740;-3.390;2022-07-29T10:06:57;101562.63;;;26.22;48.06
23261;BME280;11799;47.740;-3.390;2022-07-29T10:09:23;101557.56;;;25.76;47.85
23261;BME280;11799;47.740;-3.390;2022-07-29T10:12:09;101557.44;;;25.90;46.84
23261;BME280;11799;47.740;-3.390;2022-07-29T10:14:35;101557.78;;;25.97;46.78
23261;BME280;11799;47.740;-3.390;2022-07-29T10:17:03;101559.06;;;25.82;46.93
23261;BME280;11799;47.740;-3.390;2022-07-29T10:19:30;101553.94;;;26.24;45.32
23261;BME280;11799;47.740;-3.390;2022-07-29T10:21:58;101558.53;;;26.28;46.17
23261;BME280;11799;47.740;-3.390;2022-07-29T10:24:28;101564.09;;;26.28;46.04
23261;BME280;11799;47.740;-3.390;2022-07-29T10:26:59;101566.75;;;26.33;45.69
23261;BME280;11799;47.740;-3.390;2022-07-29T10:29:26;101561.06;;;26.47;46.46
23261;BME280;11799;47.740;-3.390;2022-07-29T10:32:08;101569.81;;;26.15;45.57
23261;BME280;11799;47.740;-3.390;2022-07-29T10:37:26;101564.50;;;26.44;46.39
23261;BME280;11799;47.740;-3.390;2022-07-29T10:43:26;101573.84;;;26.65;44.38
23261;BME280;11799;47.740;-3.390;2022-07-29T10:45:56;101560.09;;;26.60;45.88
23261;BME280;11799;47.740;-3.390;2022-07-29T10:48:23;101567.31;;;26.79;43.63
23261;BME280;11799;47.740;-3.390;2022-07-29T10:51:02;101568.97;;;26.80;44.75
23261;BME280;11799;47.740;-3.390;2022-07-29T10:53:48;101566.34;;;27.00;43.64
23261;BME280;11799;47.740;-3.390;2022-07-29T10:56:28;101566.34;;;27.18;44.84
23261;BME280;11799;47.740;-3.390;2022-07-29T11:01:50;101568.13;;;26.96;44.26
23261;BME280;11799;47.740;-3.390;2022-07-29T11:07:11;101567.63;;;27.29;42.23
23261;BME280;11799;47.740;-3.390;2022-07-29T11:09:38;101558.97;;;27.13;43.49
23261;BME280;11799;47.740;-3.390;2022-07-29T11:15:03;101554.50;;;27.21;47.29
23261;BME280;11799;47.740;-3.390;2022-07-29T11:20:48;101565.66;;;27.29;48.05
23261;BME280;11799;47.740;-3.390;2022-07-29T11:31:39;101557.91;;;27.35;46.94
23261;BME280;11799;47.740;-3.390;2022-07-29T11:34:17;101554.31;;;27.34;47.95
23261;BME280;11799;47.740;-3.390;2022-07-29T11:39:49;101556.31;;;27.17;46.62
23261;BME280;11799;47.740;-3.390;2022-07-29T11:47:36;101574.81;;;27.39;46.25
23261;BME280;11799;47.740;-3.390;2022-07-29T11:50:04;101579.91;;;27.45;47.33
23261;BME280;11799;47.740;-3.390;2022-07-29T11:52:35;101578.03;;;27.67;45.83
23261;BME280;11799;47.740;-3.390;2022-07-29T11:55:05;101578.53;;;27.77;46.02
23261;BME280;11799;47.740;-3.390;2022-07-29T11:57:33;101582.88;;;27.95;45.69
23261;BME280;11799;47.740;-3.390;2022-07-29T12:00:00;101587.91;;;27.55;45.49
23261;BME280;11799;47.740;-3.390;2022-07-29T12:02:38;101592.00;;;27.58;44.55
23261;BME280;11799;47.740;-3.390;2022-07-29T12:05:04;101600.72;;;27.56;44.55
23261;BME280;11799;47.740;-3.390;2022-07-29T12:07:32;101595.81;;;28.00;44.71
23261;BME280;11799;47.740;-3.390;2022-07-29T12:09:58;101600.59;;;28.00;43.49
23261;BME280;11799;47.740;-3.390;2022-07-29T12:12:24;101599.09;;;28.02;43.28
23261;BME280;11799;47.740;-3.390;2022-07-29T12:14:51;101604.81;;;28.44;42.81
23261;BME280;11799;47.740;-3.390;2022-07-29T12:17:28;101603.94;;;28.22;42.76
23261;BME280;11799;47.740;-3.390;2022-07-29T12:19:55;101606.63;;;28.40;42.64
23261;BME280;11799;47.740;-3.390;2022-07-29T12:22:28;101603.16;;;28.43;41.29
23261;BME280;11799;47.740;-3.390;2022-07-29T12:24:55;101597.00;;;29.21;40.10
23261;BME280;11799;47.740;-3.390;2022-07-29T12:27:20;101607.91;;;30.77;35.79
23261;BME280;11799;47.740;-3.390;2022-07-29T12:29:59;101612.06;;;31.79;34.64
23261;BME280;11799;47.740;-3.390;2022-07-29T12:32:43;101597.78;;;33.05;31.71
23261;BME280;11799;47.740;-3.390;2022-07-29T12:35:13;101593.50;;;33.99;31.35
23261;BME280;11799;47.740;-3.390;2022-07-29T12:37:40;101583.91;;;33.35;30.73
23261;BME280;11799;47.740;-3.390;2022-07-29T12:40:08;101584.16;;;33.30;30.88
23261;BME280;11799;47.740;-3.390;2022-07-29T12:42:34;101579.69;;;33.06;31.40
23261;BME280;11799;47.740;-3.390;2022-07-29T12:45:01;101580.72;;;34.58;29.38
23261;BME280;11799;47.740;-3.390;2022-07-29T12:47:28;101575.81;;;34.52;28.50
23261;BME280;11799;47.740;-3.390;2022-07-29T12:50:13;101580.28;;;34.56;28.82
23261;BME280;11799;47.740;-3.390;2022-07-29T12:52:43;101581.94;;;34.87;28.34
23261;BME280;11799;47.740;-3.390;2022-07-29T12:55:09;101595.13;;;34.50;28.15
23261;BME280;11799;47.740;-3.390;2022-07-29T12:57:49;101583.66;;;34.95;27.88
23261;BME280;11799;47.740;-3.390;2022-07-29T13:00:22;101596.75;;;35.11;27.94
23261;BME280;11799;47.740;-3.390;2022-07-29T13:02:55;101599.22;;;35.90;27.02
23261;BME280;11799;47.740;-3.390;2022-07-29T13:05:21;101597.88;;;35.77;27.90
23261;BME280;11799;47.740;-3.390;2022-07-29T13:07:47;101603.94;;;35.38;28.43
23261;BME280;11799;47.740;-3.390;2022-07-29T13:13:00;101591.41;;;35.76;27.15
23261;BME280;11799;47.740;-3.390;2022-07-29T13:15:25;101596.63;;;36.18;26.81
23261;BME280;11799;47.740;-3.390;2022-07-29T13:17:50;101595.72;;;36.69;25.90
23261;BME280;11799;47.740;-3.390;2022-07-29T13:20:16;101602.69;;;36.17;25.92
23261;BME280;11799;47.740;-3.390;2022-07-29T13:22:42;101606.75;;;36.19;26.74
23261;BME280;11799;47.740;-3.390;2022-07-29T13:25:08;101600.75;;;35.40;27.00
23261;BME280;11799;47.740;-3.390;2022-07-29T13:27:36;101591.06;;;33.98;30.21
23261;BME280;11799;47.740;-3.390;2022-07-29T13:30:05;101580.22;;;35.46;27.28
23261;BME280;11799;47.740;-3.390;2022-07-29T13:32:31;101583.66;;;34.95;28.00
23261;BME280;11799;47.740;-3.390;2022-07-29T13:35:01;101599.47;;;34.44;29.46